Whitesville, Kentucky
Current Conditions -  °F | °C
As of 9:56 AM on Tuesday 21 Oct 2014 (Local Time) from KOWB Reporting Station
Clear Clear  
Wind Chill: 58°   Ceiling: Unl
Heat Index: 58°   Visibility: 10mi
Dew Point: 48°   Wind: 6mph
Humidity: 69%   Direction: 30°NNE
Pressure: 30.09"   Gusts: NA
Location:  37.68°N, 86.87°W
Report Text: KOWB 211456Z 03005KT 10SM CLR 14/09 A3009 RMK AO2 51016 T01440088 SLP189
Loading
Personal Weather Stations






























Interactive Weather Map
Tropical Storm Tracking
New forecast layout! Learn more

10-Day Weather Forecast

Advertisements
Track Severe Weather on mobile